Westville, Connecticut
Current Conditions -  °F | °C
As of 5:53 AM on Friday 28 Nov 2014 (Local Time) from KHVN Reporting Station
Clear Clear  
Wind Chill: 25°   Ceiling: Unl
Heat Index: 33°   Visibility: 10mi
Dew Point: 24°   Wind: 9mph
Humidity: 70%   Direction: 310°NW
Pressure: 30.07"   Gusts: NA
Location:  41.3258°N, 72.9705°W
Report Text: KHVN 281053Z 31008KT 10SM CLR 01/M04 A3007 RMK AO2 SLP183 T00061044
Loading
Personal Weather Stations






























Interactive Weather Map New forecast layout! Learn more

10-Day Weather Forecast

Advertisements
Track Severe Weather on mobile